sensor_id;sensor_type;location;lat;lon;timestamp;pressure;altitude;pressure_sealevel;temperature;humidity
15260;BME280;34462;51.368;12.364;2022-12-18T00:01:30;18446.31;;;-141.84;82.09
15260;BME280;34462;51.368;12.364;2022-12-18T00:04:06;18470.69;;;-141.84;82.08
15260;BME280;34462;51.368;12.364;2022-12-18T00:06:35;18460.53;;;-141.84;81.99
15260;BME280;34462;51.368;12.364;2022-12-18T00:09:03;18466.63;;;-141.84;82.18
15260;BME280;34462;51.368;12.364;2022-12-18T00:11:32;18458.50;;;-141.84;82.20
15260;BME280;34462;51.368;12.364;2022-12-18T00:14:00;18458.50;;;-141.84;82.38
15260;BME280;34462;51.368;12.364;2022-12-18T00:16:29;18470.69;;;-141.84;82.53
15260;BME280;34462;51.368;12.364;2022-12-18T00:19:01;18484.91;;;-141.84;82.42
15260;BME280;34462;51.368;12.364;2022-12-18T00:21:31;18519.44;;;-141.84;82.09
15260;BME280;34462;51.368;12.364;2022-12-18T00:24:00;18468.66;;;-141.84;82.03
15260;BME280;34462;51.368;12.364;2022-12-18T00:26:31;18454.44;;;-141.84;82.23
15260;BME280;34462;51.368;12.364;2022-12-18T00:29:02;18470.69;;;-141.84;82.26
15260;BME280;34462;51.368;12.364;2022-12-18T00:31:32;18478.81;;;-141.84;81.74
15260;BME280;34462;51.368;12.364;2022-12-18T00:34:02;18456.47;;;-141.84;81.80
15260;BME280;34462;51.368;12.364;2022-12-18T00:36:32;18482.88;;;-141.84;81.82
15260;BME280;34462;51.368;12.364;2022-12-18T00:39:04;18491.00;;;-141.84;81.90
15260;BME280;34462;51.368;12.364;2022-12-18T00:41:32;18484.91;;;-141.84;81.77
15260;BME280;34462;51.368;12.364;2022-12-18T00:44:19;18488.97;;;-141.84;81.62
15260;BME280;34462;51.368;12.364;2022-12-18T00:46:47;18493.03;;;-141.84;81.64
15260;BME280;34462;51.368;12.364;2022-12-18T00:49:19;18476.78;;;-141.84;81.40
15260;BME280;34462;51.368;12.364;2022-12-18T00:51:48;18482.88;;;-141.84;81.34
15260;BME280;34462;51.368;12.364;2022-12-18T00:54:17;18484.91;;;-141.84;81.50
15260;BME280;34462;51.368;12.364;2022-12-18T00:56:45;18460.53;;;-141.84;81.16
15260;BME280;34462;51.368;12.364;2022-12-18T00:59:16;18488.97;;;-141.84;80.97
15260;BME280;34462;51.368;12.364;2022-12-18T01:01:45;18470.69;;;-141.84;80.92
15260;BME280;34462;51.368;12.364;2022-12-18T01:04:14;18472.72;;;-141.84;80.67
15260;BME280;34462;51.368;12.364;2022-12-18T01:06:43;18480.84;;;-141.84;80.61
15260;BME280;34462;51.368;12.364;2022-12-18T01:09:12;18499.13;;;-141.84;80.67
15260;BME280;34462;51.368;12.364;2022-12-18T01:11:40;18493.03;;;-141.84;80.85
15260;BME280;34462;51.368;12.364;2022-12-18T01:14:08;18488.97;;;-141.84;80.64
15260;BME280;34462;51.368;12.364;2022-12-18T01:16:37;18480.84;;;-141.84;79.93
15260;BME280;34462;51.368;12.364;2022-12-18T01:19:05;18497.09;;;-141.84;79.13
15260;BME280;34462;51.368;12.364;2022-12-18T01:21:34;18476.78;;;-141.84;79.17
15260;BME280;34462;51.368;12.364;2022-12-18T01:24:05;18472.72;;;-141.84;79.56
15260;BME280;34462;51.368;12.364;2022-12-18T01:26:33;18509.28;;;-141.84;80.01
15260;BME280;34462;51.368;12.364;2022-12-18T01:29:01;18423.94;;;-141.84;80.04
15260;BME280;34462;51.368;12.364;2022-12-18T01:31:32;18470.69;;;-141.84;80.04
15260;BME280;34462;51.368;12.364;2022-12-18T01:34:01;18456.47;;;-141.84;80.09
15260;BME280;34462;51.368;12.364;2022-12-18T01:36:32;18480.84;;;-141.84;80.19
15260;BME280;34462;51.368;12.364;2022-12-18T01:39:06;18484.91;;;-141.84;80.05
15260;BME280;34462;51.368;12.364;2022-12-18T01:41:36;18474.75;;;-141.84;79.94
15260;BME280;34462;51.368;12.364;2022-12-18T01:44:57;18493.03;;;-141.84;79.22
15260;BME280;34462;51.368;12.364;2022-12-18T01:47:33;18515.38;;;-141.84;78.92
15260;BME280;34462;51.368;12.364;2022-12-18T01:50:11;18488.97;;;-141.84;79.02
15260;BME280;34462;51.368;12.364;2022-12-18T01:52:43;18486.94;;;-141.84;78.88
15260;BME280;34462;51.368;12.364;2022-12-18T01:55:18;18507.25;;;-141.84;78.57
15260;BME280;34462;51.368;12.364;2022-12-18T01:57:47;18519.44;;;-141.84;78.84
15260;BME280;34462;51.368;12.364;2022-12-18T02:00:20;18474.75;;;-141.84;78.99
15260;BME280;34462;51.368;12.364;2022-12-18T02:02:49;18458.50;;;-141.84;78.94
15260;BME280;34462;51.368;12.364;2022-12-18T02:05:22;18509.28;;;-141.84;79.42
15260;BME280;34462;51.368;12.364;2022-12-18T02:08:04;18480.84;;;-141.84;79.43
15260;BME280;34462;51.368;12.364;2022-12-18T02:10:46;18456.47;;;-141.84;79.48
15260;BME280;34462;51.368;12.364;2022-12-18T02:13:23;18501.16;;;-141.84;79.75
15260;BME280;34462;51.368;12.364;2022-12-18T02:16:02;18493.03;;;-141.84;79.90
15260;BME280;34462;51.368;12.364;2022-12-18T02:18:38;18505.22;;;-141.84;80.20
15260;BME280;34462;51.368;12.364;2022-12-18T02:21:20;18495.06;;;-141.84;80.14
15260;BME280;34462;51.368;12.364;2022-12-18T02:24:06;18495.06;;;-141.84;79.89
15260;BME280;34462;51.368;12.364;2022-12-18T02:26:46;18533.66;;;-141.84;79.45
15260;BME280;34462;51.368;12.364;2022-12-18T02:29:22;18476.78;;;-141.84;78.99
15260;BME280;34462;51.368;12.364;2022-12-18T02:32:00;18480.84;;;-141.84;78.41
15260;BME280;34462;51.368;12.364;2022-12-18T02:34:33;18493.03;;;-141.84;78.57
15260;BME280;34462;51.368;12.364;2022-12-18T02:37:07;18482.88;;;-141.84;78.98
15260;BME280;34462;51.368;12.364;2022-12-18T02:39:41;18511.31;;;-141.84;79.10
15260;BME280;34462;51.368;12.364;2022-12-18T02:42:13;18482.88;;;-141.84;79.63
15260;BME280;34462;51.368;12.364;2022-12-18T02:44:46;18484.91;;;-141.84;80.08
15260;BME280;34462;51.368;12.364;2022-12-18T02:47:17;18499.13;;;-141.84;80.17
15260;BME280;34462;51.368;12.364;2022-12-18T02:49:58;18476.78;;;-141.84;80.56
15260;BME280;34462;51.368;12.364;2022-12-18T02:52:38;18517.41;;;-141.84;80.59
15260;BME280;34462;51.368;12.364;2022-12-18T02:55:21;18503.19;;;-141.84;80.74
15260;BME280;34462;51.368;12.364;2022-12-18T02:58:03;18486.94;;;-141.84;80.75
15260;BME280;34462;51.368;12.364;2022-12-18T03:00:40;18448.34;;;-141.84;80.27
15260;BME280;34462;51.368;12.364;2022-12-18T03:03:15;18503.19;;;-141.84;80.29
15260;BME280;34462;51.368;12.364;2022-12-18T03:05:53;18493.03;;;-141.84;80.54
15260;BME280;34462;51.368;12.364;2022-12-18T03:08:28;18505.22;;;-141.84;80.55
15260;BME280;34462;51.368;12.364;2022-12-18T03:11:02;18497.09;;;-141.84;80.14
15260;BME280;34462;51.368;12.364;2022-12-18T03:13:37;18482.88;;;-141.84;79.79
15260;BME280;34462;51.368;12.364;2022-12-18T03:16:11;18493.03;;;-141.84;79.68
15260;BME280;34462;51.368;12.364;2022-12-18T03:18:46;18497.09;;;-141.84;79.84
15260;BME280;34462;51.368;12.364;2022-12-18T03:21:21;18484.91;;;-141.84;79.33
15260;BME280;34462;51.368;12.364;2022-12-18T03:23:52;18464.59;;;-141.84;79.35
15260;BME280;34462;51.368;12.364;2022-12-18T03:26:24;18505.22;;;-141.84;79.56
15260;BME280;34462;51.368;12.364;2022-12-18T03:29:02;18531.63;;;-141.84;79.71
15260;BME280;34462;51.368;12.364;2022-12-18T03:31:34;18497.09;;;-141.84;79.47
15260;BME280;34462;51.368;12.364;2022-12-18T03:34:12;18476.78;;;-141.84;79.70
15260;BME280;34462;51.368;12.364;2022-12-18T03:36:42;18476.78;;;-141.84;80.09
15260;BME280;34462;51.368;12.364;2022-12-18T03:39:10;18454.44;;;-141.84;80.09
15260;BME280;34462;51.368;12.364;2022-12-18T03:41:44;18499.13;;;-141.84;80.03
15260;BME280;34462;51.368;12.364;2022-12-18T03:44:25;18480.84;;;-141.84;80.08
15260;BME280;34462;51.368;12.364;2022-12-18T03:47:05;18505.22;;;-141.84;80.00
15260;BME280;34462;51.368;12.364;2022-12-18T03:49:40;18480.84;;;-141.84;79.89
15260;BME280;34462;51.368;12.364;2022-12-18T03:52:20;18491.00;;;-141.84;80.19
15260;BME280;34462;51.368;12.364;2022-12-18T03:54:50;18470.69;;;-141.84;79.91
15260;BME280;34462;51.368;12.364;2022-12-18T03:57:22;18458.50;;;-141.84;79.69
15260;BME280;34462;51.368;12.364;2022-12-18T04:00:00;18517.41;;;-141.84;80.12
15260;BME280;34462;51.368;12.364;2022-12-18T04:02:31;18505.22;;;-141.84;79.73
15260;BME280;34462;51.368;12.364;2022-12-18T04:05:05;18484.91;;;-141.84;79.76
15260;BME280;34462;51.368;12.364;2022-12-18T04:07:35;18488.97;;;-141.84;80.32
15260;BME280;34462;51.368;12.364;2022-12-18T04:10:07;18519.44;;;-141.84;80.08
15260;BME280;34462;51.368;12.364;2022-12-18T04:12:37;18480.84;;;-141.84;79.93
15260;BME280;34462;51.368;12.364;2022-12-18T04:15:09;18501.16;;;-141.84;79.97
15260;BME280;34462;51.368;12.364;2022-12-18T04:17:38;18476.78;;;-141.84;79.91
15260;BME280;34462;51.368;12.364;2022-12-18T04:20:08;18478.81;;;-141.84;79.72
15260;BME280;34462;51.368;12.364;2022-12-18T04:22:36;18486.94;;;-141.84;79.85
15260;BME280;34462;51.368;12.364;2022-12-18T04:25:05;18470.69;;;-141.84;80.08
15260;BME280;34462;51.368;12.364;2022-12-18T04:27:33;18493.03;;;-141.84;80.03
15260;BME280;34462;51.368;12.364;2022-12-18T04:30:03;18513.34;;;-141.84;79.82
15260;BME280;34462;51.368;12.364;2022-12-18T04:32:33;18497.09;;;-141.84;79.89
15260;BME280;34462;51.368;12.364;2022-12-18T04:35:02;18482.88;;;-141.84;79.78
15260;BME280;34462;51.368;12.364;2022-12-18T04:37:31;18493.03;;;-141.84;80.05
15260;BME280;34462;51.368;12.364;2022-12-18T04:39:59;18505.22;;;-141.84;79.80
15260;BME280;34462;51.368;12.364;2022-12-18T04:42:27;18466.63;;;-141.84;79.86
15260;BME280;34462;51.368;12.364;2022-12-18T04:44:55;18484.91;;;-141.84;79.91
15260;BME280;34462;51.368;12.364;2022-12-18T04:47:23;18503.19;;;-141.84;79.65
15260;BME280;34462;51.368;12.364;2022-12-18T04:49:52;18503.19;;;-141.84;79.36
15260;BME280;34462;51.368;12.364;2022-12-18T04:52:20;18491.00;;;-141.84;79.15
15260;BME280;34462;51.368;12.364;2022-12-18T04:54:51;18501.16;;;-141.84;79.57
15260;BME280;34462;51.368;12.364;2022-12-18T04:57:19;18476.78;;;-141.84;79.61
15260;BME280;34462;51.368;12.364;2022-12-18T04:59:47;18501.16;;;-141.84;79.42
15260;BME280;34462;51.368;12.364;2022-12-18T05:02:16;18484.91;;;-141.84;78.91
15260;BME280;34462;51.368;12.364;2022-12-18T05:04:44;18497.09;;;-141.84;78.96
15260;BME280;34462;51.368;12.364;2022-12-18T05:07:14;18495.06;;;-141.84;78.41
15260;BME280;34462;51.368;12.364;2022-12-18T05:09:42;18501.16;;;-141.84;78.06
15260;BME280;34462;51.368;12.364;2022-12-18T05:12:11;18525.53;;;-141.84;78.16
15260;BME280;34462;51.368;12.364;2022-12-18T05:14:39;18486.94;;;-141.84;77.93
15260;BME280;34462;51.368;12.364;2022-12-18T05:17:07;18509.28;;;-141.84;77.50
15260;BME280;34462;51.368;12.364;2022-12-18T05:19:38;18501.16;;;-141.84;77.50
15260;BME280;34462;51.368;12.364;2022-12-18T05:22:09;18525.53;;;-141.84;77.32
15260;BME280;34462;51.368;12.364;2022-12-18T05:24:39;18535.69;;;-141.84;77.42
15260;BME280;34462;51.368;12.364;2022-12-18T05:27:07;18523.50;;;-141.84;77.17
15260;BME280;34462;51.368;12.364;2022-12-18T05:29:35;18493.03;;;-141.84;76.63
15260;BME280;34462;51.368;12.364;2022-12-18T05:32:04;18545.84;;;-141.84;77.34
15260;BME280;34462;51.368;12.364;2022-12-18T05:34:32;18539.75;;;-141.84;77.44
15260;BME280;34462;51.368;12.364;2022-12-18T05:37:00;18505.22;;;-141.84;77.31
15260;BME280;34462;51.368;12.364;2022-12-18T05:39:28;18509.28;;;-141.84;77.30
15260;BME280;34462;51.368;12.364;2022-12-18T05:41:58;18493.03;;;-141.84;77.86
15260;BME280;34462;51.368;12.364;2022-12-18T05:44:26;18509.28;;;-141.84;77.85
15260;BME280;34462;51.368;12.364;2022-12-18T05:46:54;18519.44;;;-141.84;77.69
15260;BME280;34462;51.368;12.364;2022-12-18T05:49:22;18480.84;;;-141.84;78.15
15260;BME280;34462;51.368;12.364;2022-12-18T05:51:51;18533.66;;;-141.84;78.11
15260;BME280;34462;51.368;12.364;2022-12-18T05:54:19;18521.47;;;-141.84;78.48
15260;BME280;34462;51.368;12.364;2022-12-18T05:56:47;18499.13;;;-141.84;78.52
15260;BME280;34462;51.368;12.364;2022-12-18T05:59:16;18497.09;;;-141.84;78.97
15260;BME280;34462;51.368;12.364;2022-12-18T06:01:45;18505.22;;;-141.84;79.06
15260;BME280;34462;51.368;12.364;2022-12-18T06:04:13;18495.06;;;-141.84;79.05
15260;BME280;34462;51.368;12.364;2022-12-18T06:06:41;18499.13;;;-141.84;79.29
15260;BME280;34462;51.368;12.364;2022-12-18T06:09:09;18505.22;;;-141.84;79.34
15260;BME280;34462;51.368;12.364;2022-12-18T06:11:39;18509.28;;;-141.84;79.35
15260;BME280;34462;51.368;12.364;2022-12-18T06:14:09;18521.47;;;-141.84;79.40
15260;BME280;34462;51.368;12.364;2022-12-18T06:16:39;18513.34;;;-141.84;79.09
15260;BME280;34462;51.368;12.364;2022-12-18T06:19:07;18503.19;;;-141.84;79.08
15260;BME280;34462;51.368;12.364;2022-12-18T06:21:35;18521.47;;;-141.84;79.03
15260;BME280;34462;51.368;12.364;2022-12-18T06:24:04;18509.28;;;-141.84;79.05
15260;BME280;34462;51.368;12.364;2022-12-18T06:26:33;18495.06;;;-141.84;78.99
15260;BME280;34462;51.368;12.364;2022-12-18T06:29:01;18499.13;;;-141.84;78.63
15260;BME280;34462;51.368;12.364;2022-12-18T06:31:29;18501.16;;;-141.84;78.20
15260;BME280;34462;51.368;12.364;2022-12-18T06:33:58;18507.25;;;-141.84;77.93
15260;BME280;34462;51.368;12.364;2022-12-18T06:36:30;18523.50;;;-141.84;78.02
15260;BME280;34462;51.368;12.364;2022-12-18T06:38:58;18521.47;;;-141.84;77.61
15260;BME280;34462;51.368;12.364;2022-12-18T06:41:27;18521.47;;;-141.84;77.58
15260;BME280;34462;51.368;12.364;2022-12-18T06:43:55;18515.38;;;-141.84;78.00
15260;BME280;34462;51.368;12.364;2022-12-18T06:46:26;18517.41;;;-141.84;78.04
15260;BME280;34462;51.368;12.364;2022-12-18T06:48:54;18482.88;;;-141.84;77.92
15260;BME280;34462;51.368;12.364;2022-12-18T06:51:24;18503.19;;;-141.84;77.46
15260;BME280;34462;51.368;12.364;2022-12-18T06:53:53;18515.38;;;-141.84;77.21
15260;BME280;34462;51.368;12.364;2022-12-18T06:56:21;18533.66;;;-141.84;77.54
15260;BME280;34462;51.368;12.364;2022-12-18T06:58:49;18529.59;;;-141.84;78.01
15260;BME280;34462;51.368;12.364;2022-12-18T07:01:18;18537.72;;;-141.84;77.99
15260;BME280;34462;51.368;12.364;2022-12-18T07:03:46;18521.47;;;-141.84;78.23
15260;BME280;34462;51.368;12.364;2022-12-18T07:06:17;18529.59;;;-141.84;78.62
15260;BME280;34462;51.368;12.364;2022-12-18T07:08:48;18513.34;;;-141.84;78.49
15260;BME280;34462;51.368;12.364;2022-12-18T07:11:17;18521.47;;;-141.84;78.86
15260;BME280;34462;51.368;12.364;2022-12-18T07:13:47;18515.38;;;-141.84;78.99
15260;BME280;34462;51.368;12.364;2022-12-18T07:16:17;18533.66;;;-141.84;79.23
15260;BME280;34462;51.368;12.364;2022-12-18T07:18:51;18574.28;;;-141.84;79.45
15260;BME280;34462;51.368;12.364;2022-12-18T07:21:21;18503.19;;;-141.84;79.51
15260;BME280;34462;51.368;12.364;2022-12-18T07:23:51;18513.34;;;-141.84;79.22
15260;BME280;34462;51.368;12.364;2022-12-18T07:26:21;18488.97;;;-141.84;79.14
15260;BME280;34462;51.368;12.364;2022-12-18T07:28:50;18523.50;;;-141.84;78.96
15260;BME280;34462;51.368;12.364;2022-12-18T07:31:21;18488.97;;;-141.84;78.83
15260;BME280;34462;51.368;12.364;2022-12-18T07:33:50;18486.94;;;-141.84;77.49
15260;BME280;34462;51.368;12.364;2022-12-18T07:36:22;18531.63;;;-141.84;77.32
15260;BME280;34462;51.368;12.364;2022-12-18T07:38:52;18501.16;;;-141.84;77.42
15260;BME280;34462;51.368;12.364;2022-12-18T07:41:20;18501.16;;;-141.84;77.16
15260;BME280;34462;51.368;12.364;2022-12-18T07:43:48;18493.03;;;-141.84;76.59
15260;BME280;34462;51.368;12.364;2022-12-18T07:46:17;18493.03;;;-141.84;76.28
15260;BME280;34462;51.368;12.364;2022-12-18T07:48:45;18505.22;;;-141.84;76.46
15260;BME280;34462;51.368;12.364;2022-12-18T07:51:17;18507.25;;;-141.84;76.35
15260;BME280;34462;51.368;12.364;2022-12-18T07:53:46;18476.78;;;-141.84;76.07
15260;BME280;34462;51.368;12.364;2022-12-18T07:56:20;18529.59;;;-141.84;76.23
15260;BME280;34462;51.368;12.364;2022-12-18T07:58:57;18537.72;;;-141.84;75.53
15260;BME280;34462;51.368;12.364;2022-12-18T08:01:26;18527.56;;;-141.84;75.47
15260;BME280;34462;51.368;12.364;2022-12-18T08:03:57;18523.50;;;-141.84;75.70
15260;BME280;34462;51.368;12.364;2022-12-18T08:06:25;18511.31;;;-141.84;75.22
15260;BME280;34462;51.368;12.364;2022-12-18T08:08:55;18566.16;;;-141.84;74.95
15260;BME280;34462;51.368;12.364;2022-12-18T08:11:28;18525.53;;;-141.84;75.36
15260;BME280;34462;51.368;12.364;2022-12-18T08:13:57;18531.63;;;-141.84;75.89
15260;BME280;34462;51.368;12.364;2022-12-18T08:16:26;18519.44;;;-141.84;75.94
15260;BME280;34462;51.368;12.364;2022-12-18T08:18:54;18529.59;;;-141.84;75.40
15260;BME280;34462;51.368;12.364;2022-12-18T08:21:26;18547.88;;;-141.84;74.68
15260;BME280;34462;51.368;12.364;2022-12-18T08:23:57;18517.41;;;-141.84;73.78
15260;BME280;34462;51.368;12.364;2022-12-18T08:26:29;18527.56;;;-141.84;73.75
15260;BME280;34462;51.368;12.364;2022-12-18T08:28:59;18556.00;;;-141.84;73.82
15260;BME280;34462;51.368;12.364;2022-12-18T08:31:29;18541.78;;;-141.84;73.94
15260;BME280;34462;51.368;12.364;2022-12-18T08:33:58;18525.53;;;-141.84;73.92
15260;BME280;34462;51.368;12.364;2022-12-18T08:36:26;18529.59;;;-141.84;73.56
15260;BME280;34462;51.368;12.364;2022-12-18T08:38:54;18523.50;;;-141.84;73.85
15260;BME280;34462;51.368;12.364;2022-12-18T08:41:24;18543.81;;;-141.84;74.20
15260;BME280;34462;51.368;12.364;2022-12-18T08:43:54;18515.38;;;-141.84;73.70
15260;BME280;34462;51.368;12.364;2022-12-18T08:46:42;18529.59;;;-141.84;73.52
15260;BME280;34462;51.368;12.364;2022-12-18T08:49:11;18527.56;;;-141.84;73.28
15260;BME280;34462;51.368;12.364;2022-12-18T08:51:40;18523.50;;;-141.84;73.13
15260;BME280;34462;51.368;12.364;2022-12-18T08:54:13;18537.72;;;-141.84;72.50
15260;BME280;34462;51.368;12.364;2022-12-18T08:56:41;18568.19;;;-141.84;72.44
15260;BME280;34462;51.368;12.364;2022-12-18T08:59:11;18547.88;;;-141.84;71.62
15260;BME280;34462;51.368;12.364;2022-12-18T09:01:46;18541.78;;;-141.84;70.67
15260;BME280;34462;51.368;12.364;2022-12-18T09:04:15;18572.25;;;-141.84;70.41
15260;BME280;34462;51.368;12.364;2022-12-18T09:06:43;18523.50;;;-141.84;71.05
15260;BME280;34462;51.368;12.364;2022-12-18T09:09:12;18582.44;;;-141.84;70.34
15260;BME280;34462;51.368;12.364;2022-12-18T09:11:40;18529.59;;;-141.84;70.34
15260;BME280;34462;51.368;12.364;2022-12-18T09:14:11;18547.88;;;-141.84;71.01
15260;BME280;34462;51.368;12.364;2022-12-18T09:16:39;18541.78;;;-141.84;71.47
15260;BME280;34462;51.368;12.364;2022-12-18T09:19:09;18562.09;;;-141.84;70.38
15260;BME280;34462;51.368;12.364;2022-12-18T09:21:37;18533.66;;;-141.84;69.71
15260;BME280;34462;51.368;12.364;2022-12-18T09:24:15;18568.19;;;-141.84;69.91
15260;BME280;34462;51.368;12.364;2022-12-18T09:26:44;18562.09;;;-141.84;69.80
15260;BME280;34462;51.368;12.364;2022-12-18T09:29:15;18521.47;;;-141.84;69.08
15260;BME280;34462;51.368;12.364;2022-12-18T09:31:45;18558.03;;;-141.84;69.34
15260;BME280;34462;51.368;12.364;2022-12-18T09:34:13;18582.44;;;-141.84;69.55
15260;BME280;34462;51.368;12.364;2022-12-18T09:36:41;18570.22;;;-141.84;69.76
15260;BME280;34462;51.368;12.364;2022-12-18T09:39:10;18570.22;;;-141.84;69.08
15260;BME280;34462;51.368;12.364;2022-12-18T09:41:45;18580.41;;;-141.84;69.17
15260;BME280;34462;51.368;12.364;2022-12-18T09:44:22;18576.31;;;-141.84;69.60
15260;BME280;34462;51.368;12.364;2022-12-18T09:47:00;18529.59;;;-141.84;70.12
15260;BME280;34462;51.368;12.364;2022-12-18T09:49:35;18545.84;;;-141.84;69.12
15260;BME280;34462;51.368;12.364;2022-12-18T09:52:12;18584.47;;;-141.84;68.47
15260;BME280;34462;51.368;12.364;2022-12-18T09:54:46;18566.16;;;-141.84;68.71
15260;BME280;34462;51.368;12.364;2022-12-18T09:57:20;18574.28;;;-141.84;68.68
15260;BME280;34462;51.368;12.364;2022-12-18T10:00:00;18580.41;;;-141.84;68.50
15260;BME280;34462;51.368;12.364;2022-12-18T10:02:31;18574.28;;;-141.84;68.68
15260;BME280;34462;51.368;12.364;2022-12-18T10:05:07;18586.50;;;-141.84;68.54
15260;BME280;34462;51.368;12.364;2022-12-18T10:07:55;18568.19;;;-141.84;69.17
15260;BME280;34462;51.368;12.364;2022-12-18T10:10:37;18588.53;;;-141.84;69.36
15260;BME280;34462;51.368;12.364;2022-12-18T10:13:16;18574.28;;;-141.84;69.41
15260;BME280;34462;51.368;12.364;2022-12-18T10:16:10;18566.16;;;-141.84;69.08
15260;BME280;34462;51.368;12.364;2022-12-18T10:19:01;18576.31;;;-141.84;67.95
15260;BME280;34462;51.368;12.364;2022-12-18T10:21:40;18562.09;;;-141.84;67.77
15260;BME280;34462;51.368;12.364;2022-12-18T10:24:21;18592.59;;;-141.84;67.73
15260;BME280;34462;51.368;12.364;2022-12-18T10:26:59;18574.28;;;-141.84;67.07
15260;BME280;34462;51.368;12.364;2022-12-18T10:29:36;18580.41;;;-141.84;66.98
15260;BME280;34462;51.368;12.364;2022-12-18T10:32:09;18588.53;;;-141.84;67.10
15260;BME280;34462;51.368;12.364;2022-12-18T10:34:44;18566.16;;;-141.84;67.03
15260;BME280;34462;51.368;12.364;2022-12-18T10:37:17;18562.09;;;-141.84;67.40
15260;BME280;34462;51.368;12.364;2022-12-18T10:39:46;18602.75;;;-141.84;67.78
15260;BME280;34462;51.368;12.364;2022-12-18T10:42:32;18612.91;;;-141.84;67.94
15260;BME280;34462;51.368;12.364;2022-12-18T10:45:07;18608.84;;;-141.84;68.00
15260;BME280;34462;51.368;12.364;2022-12-18T10:47:43;18596.66;;;-141.84;67.77
15260;BME280;34462;51.368;12.364;2022-12-18T10:50:25;18566.16;;;-141.84;67.41
15260;BME280;34462;51.368;12.364;2022-12-18T10:53:20;18610.88;;;-141.84;66.43
15260;BME280;34462;51.368;12.364;2022-12-18T10:55:52;18594.63;;;-141.84;66.72
15260;BME280;34462;51.368;12.364;2022-12-18T10:58:25;18586.50;;;-141.84;66.42
15260;BME280;34462;51.368;12.364;2022-12-18T11:01:09;18590.56;;;-141.84;66.91
15260;BME280;34462;51.368;12.364;2022-12-18T11:03:42;18608.84;;;-141.84;66.19
15260;BME280;34462;51.368;12.364;2022-12-18T11:06:13;18594.63;;;-141.84;66.61
15260;BME280;34462;51.368;12.364;2022-12-18T11:08:46;18600.72;;;-141.84;66.85
15260;BME280;34462;51.368;12.364;2022-12-18T11:11:25;18604.78;;;-141.84;67.07
15260;BME280;34462;51.368;12.364;2022-12-18T11:14:01;18602.75;;;-141.84;66.49
15260;BME280;34462;51.368;12.364;2022-12-18T11:16:34;18604.78;;;-141.84;66.57
15260;BME280;34462;51.368;12.364;2022-12-18T11:19:21;18610.88;;;-141.84;66.39
15260;BME280;34462;51.368;12.364;2022-12-18T11:21:51;18600.72;;;-141.84;65.98
15260;BME280;34462;51.368;12.364;2022-12-18T11:24:26;18600.72;;;-141.84;66.74
15260;BME280;34462;51.368;12.364;2022-12-18T11:26:57;18578.38;;;-141.84;66.88
15260;BME280;34462;51.368;12.364;2022-12-18T11:29:35;18619.00;;;-141.84;67.12
15260;BME280;34462;51.368;12.364;2022-12-18T11:32:35;18619.00;;;-141.84;67.68
15260;BME280;34462;51.368;12.364;2022-12-18T11:35:18;18621.03;;;-141.84;67.66
15260;BME280;34462;51.368;12.364;2022-12-18T11:37:53;18616.97;;;-141.84;68.02
15260;BME280;34462;51.368;12.364;2022-12-18T11:40:33;18600.72;;;-141.84;67.82
15260;BME280;34462;51.368;12.364;2022-12-18T11:43:13;18616.97;;;-141.84;68.10
15260;BME280;34462;51.368;12.364;2022-12-18T11:45:50;18629.16;;;-141.84;68.35
15260;BME280;34462;51.368;12.364;2022-12-18T11:48:25;18619.00;;;-141.84;68.15
15260;BME280;34462;51.368;12.364;2022-12-18T11:50:59;18608.84;;;-141.84;68.13
15260;BME280;34462;51.368;12.364;2022-12-18T11:53:29;18616.97;;;-141.84;68.10
15260;BME280;34462;51.368;12.364;2022-12-18T11:56:25;18610.88;;;-141.84;67.23
15260;BME280;34462;51.368;12.364;2022-12-18T11:59:08;18619.00;;;-141.84;67.35
15260;BME280;34462;51.368;12.364;2022-12-18T12:01:50;18623.06;;;-141.84;66.74
15260;BME280;34462;51.368;12.364;2022-12-18T12:04:46;18633.22;;;-141.84;66.26
15260;BME280;34462;51.368;12.364;2022-12-18T12:07:33;18602.75;;;-141.84;66.29
15260;BME280;34462;51.368;12.364;2022-12-18T12:10:20;18653.53;;;-141.84;65.99
15260;BME280;34462;51.368;12.364;2022-12-18T12:13:13;18606.81;;;-141.84;66.15
15260;BME280;34462;51.368;12.364;2022-12-18T12:16:01;18614.94;;;-141.84;65.63
15260;BME280;34462;51.368;12.364;2022-12-18T12:18:44;18610.88;;;-141.84;65.65
15260;BME280;34462;51.368;12.364;2022-12-18T12:21:25;18661.66;;;-141.84;65.68
15260;BME280;34462;51.368;12.364;2022-12-18T12:24:12;18637.28;;;-141.84;64.42
15260;BME280;34462;51.368;12.364;2022-12-18T12:26:57;18663.69;;;-141.84;64.48
15260;BME280;34462;51.368;12.364;2022-12-18T12:29:45;18651.50;;;-141.84;64.55
15260;BME280;34462;51.368;12.364;2022-12-18T12:32:31;18647.44;;;-141.84;64.49
15260;BME280;34462;51.368;12.364;2022-12-18T12:35:18;18629.16;;;-141.84;64.68
15260;BME280;34462;51.368;12.364;2022-12-18T12:38:02;18623.06;;;-141.84;64.83
15260;BME280;34462;51.368;12.364;2022-12-18T12:40:38;18604.78;;;-141.84;64.70
15260;BME280;34462;51.368;12.364;2022-12-18T12:43:32;18627.13;;;-141.84;65.37
15260;BME280;34462;51.368;12.364;2022-12-18T12:46:04;18655.56;;;-141.84;65.86
15260;BME280;34462;51.368;12.364;2022-12-18T12:48:40;18614.94;;;-141.84;66.42
15260;BME280;34462;51.368;12.364;2022-12-18T12:51:17;18616.97;;;-141.84;66.82
15260;BME280;34462;51.368;12.364;2022-12-18T12:53:48;18627.13;;;-141.84;66.54
15260;BME280;34462;51.368;12.364;2022-12-18T12:56:20;18604.78;;;-141.84;66.26
15260;BME280;34462;51.368;12.364;2022-12-18T12:59:06;18659.63;;;-141.84;65.99
15260;BME280;34462;51.368;12.364;2022-12-18T13:01:49;18633.22;;;-141.84;64.89